sensor_id;sensor_type;location;lat;lon;timestamp;pressure;altitude;pressure_sealevel;temperature;humidity
75497;BME280;64074;47.540;19.072;2022-10-26T00:01:45;101084.16;;;11.06;86.34
75497;BME280;64074;47.540;19.072;2022-10-26T00:05:22;101089.41;;;10.87;86.84
75497;BME280;64074;47.540;19.072;2022-10-26T00:08:30;101093.78;;;10.83;87.50
75497;BME280;64074;47.540;19.072;2022-10-26T00:11:33;101078.88;;;10.81;86.97
75497;BME280;64074;47.540;19.072;2022-10-26T00:14:38;101096.22;;;10.85;87.24
75497;BME280;64074;47.540;19.072;2022-10-26T00:17:46;101094.56;;;10.89;86.86
75497;BME280;64074;47.540;19.072;2022-10-26T00:20:54;101099.72;;;10.95;87.11
75497;BME280;64074;47.540;19.072;2022-10-26T00:24:03;101108.31;;;11.07;86.25
75497;BME280;64074;47.540;19.072;2022-10-26T00:27:12;101103.16;;;11.06;86.57
75497;BME280;64074;47.540;19.072;2022-10-26T00:30:27;101096.97;;;11.00;87.05
75497;BME280;64074;47.540;19.072;2022-10-26T00:33:57;101096.22;;;10.85;87.99
75497;BME280;64074;47.540;19.072;2022-10-26T00:37:12;101095.97;;;10.81;87.53
75497;BME280;64074;47.540;19.072;2022-10-26T00:40:35;101098.13;;;10.84;87.38
75497;BME280;64074;47.540;19.072;2022-10-26T00:43:56;101097.66;;;10.67;88.11
75497;BME280;64074;47.540;19.072;2022-10-26T00:48:00;101094.94;;;10.62;88.55
75497;BME280;64074;47.540;19.072;2022-10-26T00:50:47;101082.47;;;10.61;88.31
75497;BME280;64074;47.540;19.072;2022-10-26T00:54:07;101083.56;;;10.60;87.51
75497;BME280;64074;47.540;19.072;2022-10-26T00:57:31;101084.66;;;10.59;87.29
75497;BME280;64074;47.540;19.072;2022-10-26T01:01:10;101082.00;;;10.43;87.71
75497;BME280;64074;47.540;19.072;2022-10-26T01:04:15;101088.78;;;10.46;87.85
75497;BME280;64074;47.540;19.072;2022-10-26T01:07:26;101085.00;;;10.37;89.52
75497;BME280;64074;47.540;19.072;2022-10-26T01:10:37;101085.53;;;10.34;89.85
75497;BME280;64074;47.540;19.072;2022-10-26T01:14:17;101086.63;;;10.38;89.77
75497;BME280;64074;47.540;19.072;2022-10-26T01:17:46;101080.66;;;10.41;89.40
75497;BME280;64074;47.540;19.072;2022-10-26T01:32:15;101075.28;;;10.26;90.63
75497;BME280;64074;47.540;19.072;2022-10-26T01:35:53;101065.53;;;10.25;90.27
75497;BME280;64074;47.540;19.072;2022-10-26T01:39:07;101073.66;;;10.25;90.02
75497;BME280;64074;47.540;19.072;2022-10-26T01:42:20;101070.69;;;10.21;89.85
75497;BME280;64074;47.540;19.072;2022-10-26T01:45:32;101069.03;;;10.20;88.72
75497;BME280;64074;47.540;19.072;2022-10-26T01:49:05;101069.28;;;10.13;89.34
75497;BME280;64074;47.540;19.072;2022-10-26T01:52:18;101070.94;;;10.04;90.17
75497;BME280;64074;47.540;19.072;2022-10-26T01:55:47;101069.31;;;10.03;90.31
75497;BME280;64074;47.540;19.072;2022-10-26T02:06:02;101072.03;;;10.03;88.52
75497;BME280;64074;47.540;19.072;2022-10-26T02:16:29;101063.94;;;9.78;89.28
75497;BME280;64074;47.540;19.072;2022-10-26T02:20:01;101056.63;;;9.83;89.54
75497;BME280;64074;47.540;19.072;2022-10-26T02:23:17;101066.09;;;9.81;88.71
75497;BME280;64074;47.540;19.072;2022-10-26T02:26:28;101062.84;;;9.79;88.52
75497;BME280;64074;47.540;19.072;2022-10-26T02:29:35;101064.22;;;9.76;88.69
75497;BME280;64074;47.540;19.072;2022-10-26T02:32:51;101067.75;;;9.72;88.84
75497;BME280;64074;47.540;19.072;2022-10-26T02:36:08;101065.31;;;9.70;89.34
75497;BME280;64074;47.540;19.072;2022-10-26T02:39:20;101067.47;;;9.68;89.45
75497;BME280;64074;47.540;19.072;2022-10-26T02:42:53;101063.38;;;9.66;89.65
75497;BME280;64074;47.540;19.072;2022-10-26T02:46:14;101065.31;;;9.70;89.44
75497;BME280;64074;47.540;19.072;2022-10-26T02:49:35;101072.31;;;9.66;89.45
75497;BME280;64074;47.540;19.072;2022-10-26T02:57:04;101086.94;;;9.65;89.63
75497;BME280;64074;47.540;19.072;2022-10-26T03:00:20;101083.16;;;9.56;89.40
75497;BME280;64074;47.540;19.072;2022-10-26T03:03:24;101078.81;;;9.60;91.11
75497;BME280;64074;47.540;19.072;2022-10-26T03:06:34;101080.44;;;9.61;90.39
75497;BME280;64074;47.540;19.072;2022-10-26T03:09:50;101083.16;;;9.61;89.48
75497;BME280;64074;47.540;19.072;2022-10-26T03:13:12;101088.31;;;9.63;89.95
75497;BME280;64074;47.540;19.072;2022-10-26T03:16:33;101087.50;;;9.57;89.12
75497;BME280;64074;47.540;19.072;2022-10-26T03:19:57;101098.31;;;9.57;88.94
75497;BME280;64074;47.540;19.072;2022-10-26T03:23:18;101098.88;;;9.49;88.95
75497;BME280;64074;47.540;19.072;2022-10-26T03:26:40;101104.00;;;9.45;88.03
75497;BME280;64074;47.540;19.072;2022-10-26T03:30:04;101111.31;;;9.45;88.32
75497;BME280;64074;47.540;19.072;2022-10-26T03:33:13;101114.81;;;9.40;88.00
75497;BME280;64074;47.540;19.072;2022-10-26T03:36:46;101113.19;;;9.34;87.75
75497;BME280;64074;47.540;19.072;2022-10-26T03:40:12;101107.75;;;9.29;87.89
75497;BME280;64074;47.540;19.072;2022-10-26T03:43:41;101108.56;;;9.19;88.89
75497;BME280;64074;47.540;19.072;2022-10-26T03:46:56;101115.88;;;9.19;89.35
75497;BME280;64074;47.540;19.072;2022-10-26T03:50:20;101114.25;;;9.18;89.21
75497;BME280;64074;47.540;19.072;2022-10-26T03:53:33;101115.88;;;9.24;89.14
75497;BME280;64074;47.540;19.072;2022-10-26T03:57:00;101116.69;;;9.24;89.07
75497;BME280;64074;47.540;19.072;2022-10-26T04:00:15;101128.59;;;9.29;89.57
75497;BME280;64074;47.540;19.072;2022-10-26T04:03:43;101121.56;;;9.28;89.87
75497;BME280;64074;47.540;19.072;2022-10-26T04:06:57;101119.13;;;9.26;88.82
75497;BME280;64074;47.540;19.072;2022-10-26T04:10:26;101124.53;;;9.26;88.41
75497;BME280;64074;47.540;19.072;2022-10-26T04:13:35;101132.91;;;9.24;88.46
75497;BME280;64074;47.540;19.072;2022-10-26T04:17:02;101130.72;;;9.16;88.12
75497;BME280;64074;47.540;19.072;2022-10-26T04:20:23;101133.69;;;9.15;88.82
75497;BME280;64074;47.540;19.072;2022-10-26T04:23:53;101133.94;;;9.13;88.72
75497;BME280;64074;47.540;19.072;2022-10-26T04:27:09;101132.03;;;9.09;89.17
75497;BME280;64074;47.540;19.072;2022-10-26T04:30:17;101135.84;;;9.08;88.99
75497;BME280;64074;47.540;19.072;2022-10-26T04:33:26;101129.88;;;9.01;89.04
75497;BME280;64074;47.540;19.072;2022-10-26T04:36:40;101121.75;;;9.01;89.64
75497;BME280;64074;47.540;19.072;2022-10-26T04:39:58;101131.22;;;9.03;89.70
75497;BME280;64074;47.540;19.072;2022-10-26T04:43:19;101130.41;;;9.03;89.20
75497;BME280;64074;47.540;19.072;2022-10-26T04:46:31;101133.66;;;9.05;89.35
75497;BME280;64074;47.540;19.072;2022-10-26T04:50:06;101138.78;;;9.01;89.61
75497;BME280;64074;47.540;19.072;2022-10-26T04:53:38;101127.97;;;9.01;89.39
75497;BME280;64074;47.540;19.072;2022-10-26T04:56:52;101131.75;;;9.00;89.53
75497;BME280;64074;47.540;19.072;2022-10-26T05:00:15;101135.81;;;8.98;89.69
75497;BME280;64074;47.540;19.072;2022-10-26T05:03:38;101138.50;;;8.92;88.71
75497;BME280;64074;47.540;19.072;2022-10-26T05:07:10;101135.78;;;8.92;89.38
75497;BME280;64074;47.540;19.072;2022-10-26T05:10:18;101137.91;;;8.85;89.04
75497;BME280;64074;47.540;19.072;2022-10-26T05:13:22;101131.13;;;8.83;89.76
75497;BME280;64074;47.540;19.072;2022-10-26T05:16:43;101139.50;;;8.81;89.64
75497;BME280;64074;47.540;19.072;2022-10-26T05:20:19;101143.03;;;8.87;89.59
75497;BME280;64074;47.540;19.072;2022-10-26T05:23:51;101148.44;;;8.82;89.01
75497;BME280;64074;47.540;19.072;2022-10-26T05:27:26;101152.78;;;8.83;88.52
75497;BME280;64074;47.540;19.072;2022-10-26T05:30:36;101147.38;;;8.83;88.31
75497;BME280;64074;47.540;19.072;2022-10-26T05:33:59;101147.31;;;8.73;88.56
75497;BME280;64074;47.540;19.072;2022-10-26T05:37:19;101162.78;;;8.82;88.86
75497;BME280;64074;47.540;19.072;2022-10-26T05:40:51;101164.66;;;8.82;88.13
75497;BME280;64074;47.540;19.072;2022-10-26T05:43:58;101158.72;;;8.85;88.48
75497;BME280;64074;47.540;19.072;2022-10-26T05:47:08;101161.72;;;8.88;88.33
75497;BME280;64074;47.540;19.072;2022-10-26T05:50:35;101164.13;;;8.85;87.54
75497;BME280;64074;47.540;19.072;2022-10-26T05:54:39;101166.84;;;8.85;88.07
75497;BME280;64074;47.540;19.072;2022-10-26T05:57:46;101171.16;;;8.86;87.56
75497;BME280;64074;47.540;19.072;2022-10-26T06:09:25;101180.19;;;9.02;88.19
75497;BME280;64074;47.540;19.072;2022-10-26T06:12:51;101183.44;;;9.09;87.79
75497;BME280;64074;47.540;19.072;2022-10-26T06:20:02;101191.63;;;9.24;88.27
75497;BME280;64074;47.540;19.072;2022-10-26T06:24:17;101193.00;;;9.37;88.05
75497;BME280;64074;47.540;19.072;2022-10-26T06:31:12;101196.84;;;9.56;87.46
75497;BME280;64074;47.540;19.072;2022-10-26T06:34:34;101192.00;;;9.63;87.54
75497;BME280;64074;47.540;19.072;2022-10-26T06:37:49;101188.78;;;9.76;87.83
75497;BME280;64074;47.540;19.072;2022-10-26T06:41:02;101197.19;;;10.05;87.49
75497;BME280;64074;47.540;19.072;2022-10-26T06:44:20;101195.03;;;10.12;87.46
75497;BME280;64074;47.540;19.072;2022-10-26T06:59:47;101212.59;;;10.91;84.66
75497;BME280;64074;47.540;19.072;2022-10-26T07:02:55;101207.97;;;10.97;84.42
75497;BME280;64074;47.540;19.072;2022-10-26T07:06:08;101210.34;;;11.08;84.15
75497;BME280;64074;47.540;19.072;2022-10-26T07:09:45;101217.59;;;11.28;83.54
75497;BME280;64074;47.540;19.072;2022-10-26T07:13:22;101215.97;;;11.27;84.03
75497;BME280;64074;47.540;19.072;2022-10-26T07:16:58;101212.72;;;11.25;83.48
75497;BME280;64074;47.540;19.072;2022-10-26T07:20:37;101218.41;;;11.29;83.71
75497;BME280;64074;47.540;19.072;2022-10-26T07:24:07;101207.28;;;11.30;83.24
75497;BME280;64074;47.540;19.072;2022-10-26T07:27:10;101213.75;;;11.34;83.78
75497;BME280;64074;47.540;19.072;2022-10-26T07:30:13;101208.34;;;11.34;84.03
75497;BME280;64074;47.540;19.072;2022-10-26T07:33:16;101215.91;;;11.43;83.58
75497;BME280;64074;47.540;19.072;2022-10-26T07:36:19;101216.94;;;11.52;83.37
75497;BME280;64074;47.540;19.072;2022-10-26T07:39:22;101223.44;;;11.56;82.93
75497;BME280;64074;47.540;19.072;2022-10-26T07:42:27;101217.69;;;11.67;83.33
75497;BME280;64074;47.540;19.072;2022-10-26T07:45:33;101218.41;;;11.83;82.88
75497;BME280;64074;47.540;19.072;2022-10-26T07:48:40;101216.31;;;12.09;82.09
75497;BME280;64074;47.540;19.072;2022-10-26T07:51:49;101222.38;;;12.35;80.41
75497;BME280;64074;47.540;19.072;2022-10-26T07:55:04;101220.09;;;12.47;79.79
75497;BME280;64074;47.540;19.072;2022-10-26T07:58:12;101213.16;;;12.60;79.46
75497;BME280;64074;47.540;19.072;2022-10-26T08:01:15;101212.34;;;12.59;78.82
75497;BME280;64074;47.540;19.072;2022-10-26T08:04:18;101210.22;;;12.56;78.95
75497;BME280;64074;47.540;19.072;2022-10-26T08:07:21;101210.44;;;12.60;78.41
75497;BME280;64074;47.540;19.072;2022-10-26T08:10:25;101217.75;;;12.65;78.47
75497;BME280;64074;47.540;19.072;2022-10-26T08:13:30;101205.44;;;12.72;78.31
75497;BME280;64074;47.540;19.072;2022-10-26T08:16:34;101211.56;;;12.83;78.25
75497;BME280;64074;47.540;19.072;2022-10-26T08:19:37;101212.16;;;12.80;77.63
75497;BME280;64074;47.540;19.072;2022-10-26T08:22:49;101218.69;;;12.79;77.56
75497;BME280;64074;47.540;19.072;2022-10-26T08:27:22;101216.44;;;12.86;77.81
75497;BME280;64074;47.540;19.072;2022-10-26T08:31:00;101207.13;;;12.92;77.36
75497;BME280;64074;47.540;19.072;2022-10-26T08:34:07;101205.53;;;13.10;77.46
75497;BME280;64074;47.540;19.072;2022-10-26T08:38:12;101216.94;;;13.36;76.96
75497;BME280;64074;47.540;19.072;2022-10-26T08:46:35;101213.31;;;13.64;76.01
75497;BME280;64074;47.540;19.072;2022-10-26T08:50:02;101210.66;;;13.78;76.71
75497;BME280;64074;47.540;19.072;2022-10-26T08:53:30;101213.81;;;13.85;77.43
75497;BME280;64074;47.540;19.072;2022-10-26T08:56:45;101208.59;;;13.89;77.80
75497;BME280;64074;47.540;19.072;2022-10-26T09:00:24;101216.44;;;14.09;77.06
75497;BME280;64074;47.540;19.072;2022-10-26T09:03:43;101219.97;;;14.28;76.18
75497;BME280;64074;47.540;19.072;2022-10-26T09:07:01;101231.88;;;14.32;76.36
75497;BME280;64074;47.540;19.072;2022-10-26T09:26:14;101226.88;;;14.72;76.22
75497;BME280;64074;47.540;19.072;2022-10-26T09:29:29;101225.19;;;14.90;75.40
75497;BME280;64074;47.540;19.072;2022-10-26T09:38:32;101234.88;;;15.23;74.39
75497;BME280;64074;47.540;19.072;2022-10-26T09:42:05;101243.78;;;15.29;74.64
75497;BME280;64074;47.540;19.072;2022-10-26T09:45:48;101243.25;;;15.54;73.27
75497;BME280;64074;47.540;19.072;2022-10-26T09:49:25;101243.97;;;15.60;72.67
75497;BME280;64074;47.540;19.072;2022-10-26T09:54:22;101243.97;;;15.60;74.18
75497;BME280;64074;47.540;19.072;2022-10-26T09:59:38;101244.69;;;15.65;74.43
75497;BME280;64074;47.540;19.072;2022-10-26T10:02:43;101240.97;;;15.84;74.10
75497;BME280;64074;47.540;19.072;2022-10-26T10:05:51;101243.75;;;16.06;73.26
75497;BME280;64074;47.540;19.072;2022-10-26T10:09:06;101248.91;;;16.30;71.79
75497;BME280;64074;47.540;19.072;2022-10-26T10:12:19;101252.47;;;16.30;71.94
75497;BME280;64074;47.540;19.072;2022-10-26T10:15:51;101247.06;;;16.17;72.58
75497;BME280;64074;47.540;19.072;2022-10-26T10:20:32;101251.75;;;16.03;72.97
75497;BME280;64074;47.540;19.072;2022-10-26T10:29:47;101256.75;;;16.00;72.85
75497;BME280;64074;47.540;19.072;2022-10-26T10:33:32;101256.81;;;15.87;74.02
75497;BME280;64074;47.540;19.072;2022-10-26T10:36:39;101252.56;;;15.53;74.87
75497;BME280;64074;47.540;19.072;2022-10-26T10:39:45;101249.53;;;15.68;74.18
75497;BME280;64074;47.540;19.072;2022-10-26T10:42:51;101246.06;;;15.77;73.88
75497;BME280;64074;47.540;19.072;2022-10-26T10:45:58;101247.00;;;15.72;73.95
75497;BME280;64074;47.540;19.072;2022-10-26T10:49:04;101244.56;;;15.71;74.13
75497;BME280;64074;47.540;19.072;2022-10-26T10:52:21;101250.84;;;15.57;74.71
75497;BME280;64074;47.540;19.072;2022-10-26T10:55:28;101245.50;;;15.66;74.57
75497;BME280;64074;47.540;19.072;2022-10-26T11:08:38;101241.03;;;16.28;72.87
75497;BME280;64074;47.540;19.072;2022-10-26T11:12:04;101237.28;;;16.24;72.97
75497;BME280;64074;47.540;19.072;2022-10-26T11:15:17;101238.41;;;16.46;71.85
75497;BME280;64074;47.540;19.072;2022-10-26T11:18:30;101241.97;;;16.24;72.63
75497;BME280;64074;47.540;19.072;2022-10-26T11:21:36;101243.22;;;16.18;73.05
75497;BME280;64074;47.540;19.072;2022-10-26T11:24:48;101233.75;;;16.24;72.88
75497;BME280;64074;47.540;19.072;2022-10-26T11:27:58;101237.47;;;16.28;72.78
75497;BME280;64074;47.540;19.072;2022-10-26T11:31:11;101231.81;;;16.24;72.74
75497;BME280;64074;47.540;19.072;2022-10-26T11:37:44;101230.47;;;16.13;72.75
75497;BME280;64074;47.540;19.072;2022-10-26T11:41:28;101231.69;;;16.29;72.36
75497;BME280;64074;47.540;19.072;2022-10-26T11:46:27;101229.44;;;16.31;72.29
75497;BME280;64074;47.540;19.072;2022-10-26T11:49:52;101223.31;;;16.26;72.94
75497;BME280;64074;47.540;19.072;2022-10-26T11:53:03;101222.13;;;16.41;72.17
75497;BME280;64074;47.540;19.072;2022-10-26T11:56:27;101225.22;;;16.48;72.18
75497;BME280;64074;47.540;19.072;2022-10-26T11:59:38;101219.75;;;16.25;72.62
75497;BME280;64074;47.540;19.072;2022-10-26T12:03:00;101227.28;;;16.20;73.04
75497;BME280;64074;47.540;19.072;2022-10-26T12:06:06;101216.56;;;16.32;73.00
75497;BME280;64074;47.540;19.072;2022-10-26T12:09:33;101221.97;;;16.46;72.68
75497;BME280;64074;47.540;19.072;2022-10-26T12:15:47;101217.09;;;16.65;71.97
75497;BME280;64074;47.540;19.072;2022-10-26T12:19:11;101225.06;;;16.75;71.15
75497;BME280;64074;47.540;19.072;2022-10-26T12:22:19;101218.84;;;16.61;71.78
75497;BME280;64074;47.540;19.072;2022-10-26T12:25:23;101222.91;;;16.64;71.67
75497;BME280;64074;47.540;19.072;2022-10-26T12:28:48;101219.72;;;16.70;71.51
75497;BME280;64074;47.540;19.072;2022-10-26T12:41:55;101206.84;;;17.10;70.01
75497;BME280;64074;47.540;19.072;2022-10-26T12:48:02;101209.16;;;17.34;69.23
75497;BME280;64074;47.540;19.072;2022-10-26T12:54:58;101198.22;;;17.51;68.51
75497;BME280;64074;47.540;19.072;2022-10-26T13:09:15;101192.75;;;17.51;68.93
75497;BME280;64074;47.540;19.072;2022-10-26T13:12:25;101206.59;;;17.55;69.01
75497;BME280;64074;47.540;19.072;2022-10-26T13:15:38;101199.50;;;17.54;68.95
75497;BME280;64074;47.540;19.072;2022-10-26T13:18:47;101208.56;;;17.63;68.62
75497;BME280;64074;47.540;19.072;2022-10-26T13:22:25;101205.97;;;17.49;69.12
75497;BME280;64074;47.540;19.072;2022-10-26T13:26:13;101201.75;;;17.52;68.92
75497;BME280;64074;47.540;19.072;2022-10-26T13:29:17;101200.31;;;17.54;68.78
75497;BME280;64074;47.540;19.072;2022-10-26T13:32:21;101208.06;;;17.52;69.07
75497;BME280;64074;47.540;19.072;2022-10-26T13:35:30;101209.03;;;17.57;68.48
75497;BME280;64074;47.540;19.072;2022-10-26T13:38:35;101207.56;;;17.50;69.09
75497;BME280;64074;47.540;19.072;2022-10-26T13:41:42;101201.13;;;17.46;69.17
75497;BME280;64074;47.540;19.072;2022-10-26T13:48:13;101220.91;;;17.26;70.19
75497;BME280;64074;47.540;19.072;2022-10-26T13:51:27;101217.19;;;17.22;70.54
75497;BME280;64074;47.540;19.072;2022-10-26T14:01:33;101217.78;;;17.02;71.28
75497;BME280;64074;47.540;19.072;2022-10-26T14:05:44;101218.56;;;16.94;71.62
75497;BME280;64074;47.540;19.072;2022-10-26T14:09:53;101221.28;;;16.94;71.89
75497;BME280;64074;47.540;19.072;2022-10-26T14:12:57;101213.88;;;16.94;71.90
75497;BME280;64074;47.540;19.072;2022-10-26T14:16:00;101222.88;;;16.86;72.30
75497;BME280;64074;47.540;19.072;2022-10-26T14:19:05;101213.22;;;16.88;72.03
75497;BME280;64074;47.540;19.072;2022-10-26T14:22:18;101216.06;;;16.83;72.20
75497;BME280;64074;47.540;19.072;2022-10-26T14:25:27;101219.44;;;16.80;72.76
75497;BME280;64074;47.540;19.072;2022-10-26T14:28:54;101223.44;;;16.74;72.92
75497;BME280;64074;47.540;19.072;2022-10-26T14:31:58;101219.75;;;16.79;72.51
75497;BME280;64074;47.540;19.072;2022-10-26T14:35:01;101218.78;;;16.75;72.58
75497;BME280;64074;47.540;19.072;2022-10-26T14:38:24;101219.59;;;16.75;72.48
75497;BME280;64074;47.540;19.072;2022-10-26T14:41:29;101217.34;;;16.77;72.60
75497;BME280;64074;47.540;19.072;2022-10-26T14:44:35;101208.81;;;16.79;72.54
75497;BME280;64074;47.540;19.072;2022-10-26T14:47:42;101211.22;;;16.80;72.38
75497;BME280;64074;47.540;19.072;2022-10-26T14:51:04;101215.41;;;16.78;72.66
75497;BME280;64074;47.540;19.072;2022-10-26T14:54:20;101221.06;;;16.81;72.46
75497;BME280;64074;47.540;19.072;2022-10-26T14:57:33;101227.31;;;16.73;72.96
75497;BME280;64074;47.540;19.072;2022-10-26T15:00:36;101224.34;;;16.61;73.42
75497;BME280;64074;47.540;19.072;2022-10-26T15:03:40;101222.34;;;16.53;73.91
75497;BME280;64074;47.540;19.072;2022-10-26T15:06:43;101219.91;;;16.51;74.18
75497;BME280;64074;47.540;19.072;2022-10-26T15:09:49;101222.66;;;16.51;74.39
75497;BME280;64074;47.540;19.072;2022-10-26T15:12:52;101222.97;;;16.50;74.22
75497;BME280;64074;47.540;19.072;2022-10-26T15:19:23;101226.41;;;16.33;75.68
75497;BME280;64074;47.540;19.072;2022-10-26T15:22:32;101232.13;;;16.23;76.07
75497;BME280;64074;47.540;19.072;2022-10-26T15:25:36;101228.22;;;16.15;76.33
75497;BME280;64074;47.540;19.072;2022-10-26T15:28:40;101231.59;;;16.12;76.96
75497;BME280;64074;47.540;19.072;2022-10-26T15:31:45;101236.34;;;16.07;77.10
75497;BME280;64074;47.540;19.072;2022-10-26T15:38:12;101239.72;;;16.04;77.49
75497;BME280;64074;47.540;19.072;2022-10-26T15:44:27;101248.78;;;15.90;78.33
75497;BME280;64074;47.540;19.072;2022-10-26T15:47:32;101249.50;;;15.82;78.87
75497;BME280;64074;47.540;19.072;2022-10-26T15:50:36;101254.59;;;15.75;79.68
75497;BME280;64074;47.540;19.072;2022-10-26T15:53:43;101255.31;;;15.67;79.81
75497;BME280;64074;47.540;19.072;2022-10-26T15:56:46;101255.50;;;15.71;79.49
75497;BME280;64074;47.540;19.072;2022-10-26T15:59:52;101252.41;;;15.63;79.88
75497;BME280;64074;47.540;19.072;2022-10-26T16:02:55;101257.09;;;15.58;79.86
75497;BME280;64074;47.540;19.072;2022-10-26T16:06:00;101258.84;;;15.54;79.73
75497;BME280;64074;47.540;19.072;2022-10-26T16:09:13;101270.50;;;15.59;80.08
75497;BME280;64074;47.540;19.072;2022-10-26T16:12:18;101259.84;;;15.58;79.99
75497;BME280;64074;47.540;19.072;2022-10-26T16:15:22;101264.00;;;15.55;80.41
75497;BME280;64074;47.540;19.072;2022-10-26T16:18:27;101266.22;;;15.53;79.99
75497;BME280;64074;47.540;19.072;2022-10-26T16:21:30;101277.47;;;15.52;80.37
75497;BME280;64074;47.540;19.072;2022-10-26T16:24:33;101276.66;;;15.51;80.18
75497;BME280;64074;47.540;19.072;2022-10-26T16:27:35;101272.31;;;15.50;80.61
75497;BME280;64074;47.540;19.072;2022-10-26T16:30:38;101272.13;;;15.47;80.34
75497;BME280;64074;47.540;19.072;2022-10-26T16:33:42;101290.13;;;15.48;80.47
75497;BME280;64074;47.540;19.072;2022-10-26T16:36:47;101295.59;;;15.48;80.88
75497;BME280;64074;47.540;19.072;2022-10-26T16:39:50;101295.59;;;15.48;80.82
75497;BME280;64074;47.540;19.072;2022-10-26T16:42:56;101296.72;;;15.47;80.58
75497;BME280;64074;47.540;19.072;2022-10-26T16:45:59;101293.97;;;15.47;80.74
75497;BME280;64074;47.540;19.072;2022-10-26T16:49:04;101284.97;;;15.46;80.39
75497;BME280;64074;47.540;19.072;2022-10-26T16:52:10;101290.94;;;15.48;80.41
75497;BME280;64074;47.540;19.072;2022-10-26T16:55:14;101295.78;;;15.51;80.29
75497;BME280;64074;47.540;19.072;2022-10-26T16:58:17;101301.56;;;15.50;79.82
75497;BME280;64074;47.540;19.072;2022-10-26T17:01:22;101299.84;;;15.54;80.01
75497;BME280;64074;47.540;19.072;2022-10-26T17:04:31;101309.34;;;15.84;80.61
75497;BME280;64074;47.540;19.072;2022-10-26T17:07:34;101312.00;;;15.75;79.38
75497;BME280;64074;47.540;19.072;2022-10-26T17:10:37;101306.03;;;15.59;80.23
75497;BME280;64074;47.540;19.072;2022-10-26T17:13:42;101303.91;;;15.43;80.94
75497;BME280;64074;47.540;19.072;2022-10-26T17:16:46;101307.03;;;15.36;80.92
75497;BME280;64074;47.540;19.072;2022-10-26T17:19:55;101311.78;;;15.30;81.68
75497;BME280;64074;47.540;19.072;2022-10-26T17:22:58;101313.19;;;15.28;81.21
75497;BME280;64074;47.540;19.072;2022-10-26T17:26:06;101318.88;;;15.31;80.60
75497;BME280;64074;47.540;19.072;2022-10-26T17:29:11;101329.09;;;15.53;79.45
75497;BME280;64074;47.540;19.072;2022-10-26T17:32:15;101330.88;;;15.63;79.25
75497;BME280;64074;47.540;19.072;2022-10-26T17:35:19;101327.72;;;15.69;78.87
75497;BME280;64074;47.540;19.072;2022-10-26T17:38:23;101325.59;;;15.66;79.93
75497;BME280;64074;47.540;19.072;2022-10-26T17:41:26;101326.97;;;15.50;80.59
75497;BME280;64074;47.540;19.072;2022-10-26T17:44:30;101324.84;;;15.33;81.07
75497;BME280;64074;47.540;19.072;2022-10-26T17:47:36;101330.72;;;15.27;81.41
75497;BME280;64074;47.540;19.072;2022-10-26T17:50:40;101337.09;;;15.22;81.49
75497;BME280;64074;47.540;19.072;2022-10-26T17:53:46;101330.59;;;15.18;81.86
75497;BME280;64074;47.540;19.072;2022-10-26T17:56:49;101331.41;;;15.19;81.80
75497;BME280;64074;47.540;19.072;2022-10-26T17:59:53;101338.19;;;15.21;81.65
75497;BME280;64074;47.540;19.072;2022-10-26T18:02:57;101344.16;;;15.23;81.86
75497;BME280;64074;47.540;19.072;2022-10-26T18:06:01;101350.03;;;15.17;82.17
75497;BME280;64074;47.540;19.072;2022-10-26T18:09:08;101358.22;;;15.17;82.15
75497;BME280;64074;47.540;19.072;2022-10-26T18:12:12;101349.38;;;15.06;82.63
75497;BME280;64074;47.540;19.072;2022-10-26T18:15:16;101357.06;;;14.90;83.42
75497;BME280;64074;47.540;19.072;2022-10-26T18:18:20;101363.03;;;14.92;80.35
75497;BME280;64074;47.540;19.072;2022-10-26T18:21:25;101356.16;;;15.08;79.04
75497;BME280;64074;47.540;19.072;2022-10-26T18:24:29;101361.13;;;15.06;79.89
75497;BME280;64074;47.540;19.072;2022-10-26T18:27:32;101352.81;;;14.98;80.37
75497;BME280;64074;47.540;19.072;2022-10-26T18:30:36;101370.81;;;14.99;81.60
75497;BME280;64074;47.540;19.072;2022-10-26T18:33:39;101373.09;;;14.78;82.22
75497;BME280;64074;47.540;19.072;2022-10-26T18:36:42;101372.06;;;14.55;83.23
75497;BME280;64074;47.540;19.072;2022-10-26T18:39:46;101377.44;;;14.41;84.16
75497;BME280;64074;47.540;19.072;2022-10-26T18:42:50;101375.66;;;14.32;84.34
75497;BME280;64074;47.540;19.072;2022-10-26T18:46:01;101369.56;;;14.21;84.73
75497;BME280;64074;47.540;19.072;2022-10-26T18:49:05;101366.81;;;14.21;84.66
75497;BME280;64074;47.540;19.072;2022-10-26T18:52:08;101371.88;;;14.09;85.18
75497;BME280;64074;47.540;19.072;2022-10-26T18:55:13;101377.41;;;14.04;85.52
75497;BME280;64074;47.540;19.072;2022-10-26T18:58:16;101380.00;;;13.95;84.59
75497;BME280;64074;47.540;19.072;2022-10-26T19:01:21;101388.97;;;13.96;84.06
75497;BME280;64074;47.540;19.072;2022-10-26T19:04:24;101385.66;;;13.99;83.70
75497;BME280;64074;47.540;19.072;2022-10-26T19:07:30;101390.53;;;14.02;83.31
75497;BME280;64074;47.540;19.072;2022-10-26T19:10:36;101403.56;;;14.05;83.23
75497;BME280;64074;47.540;19.072;2022-10-26T19:13:40;101409.25;;;14.08;82.96
75497;BME280;64074;47.540;19.072;2022-10-26T19:16:49;101410.13;;;14.04;82.83
75497;BME280;64074;47.540;19.072;2022-10-26T19:19:53;101413.75;;;13.99;82.72
75497;BME280;64074;47.540;19.072;2022-10-26T19:23:00;101427.91;;;14.01;82.61
75497;BME280;64074;47.540;19.072;2022-10-26T19:26:05;101427.00;;;14.06;82.27
75497;BME280;64074;47.540;19.072;2022-10-26T19:29:11;101439.63;;;14.02;82.43